Selbyville, Delaware
Current Conditions -  °F | °C
As of 4:53 AM on Wednesday 26 Nov 2014 (Local Time) from KOXB Reporting Station
Moderate Rain Moderate Rain  
Wind Chill: 39°   Ceiling: 4100
Heat Index: 46°   Visibility: 4mi
Dew Point: 41°   Wind: 16mph
Humidity: 83%   Direction: 60°ENE
Pressure: 30.05"   Gusts: 25mph
Location:  38.46°N, 75.22°W
Report Text: KOXB 260953Z AUTO 06014G22KT 4SM RA FEW017 BKN041 OVC055 08/05 A3005 RMK AO2 SLP175 P0000 T00780050 TSNO
Loading
Personal Weather Stations






























Interactive Weather Map New forecast layout! Learn more

10-Day Weather Forecast

Advertisements
Track Severe Weather on mobile